createdAt,value
2023-02-17T00:00:59.350Z,99029.19
2023-02-17T00:02:02.737Z,99036.03
2023-02-17T00:03:06.088Z,99027.44
2023-02-17T00:04:09.054Z,99031.66
2023-02-17T00:05:11.101Z,99032.44
2023-02-17T00:06:14.035Z,99024.72
2023-02-17T00:07:16.183Z,99029.72
2023-02-17T00:08:19.572Z,99027.03
2023-02-17T00:09:21.552Z,99035.44
2023-02-17T00:10:24.596Z,99028.47
2023-02-17T00:11:28.344Z,99024.94
2023-02-17T00:12:31.250Z,99026.50
2023-02-17T00:13:33.509Z,99023.84
2023-02-17T00:14:36.779Z,99021.19
2023-02-17T00:15:39.012Z,99021.94
2023-02-17T00:16:42.092Z,99027.78
2023-02-17T00:17:44.514Z,99024.22
2023-02-17T00:18:49.793Z,99025.00
2023-02-17T00:19:53.968Z,99025.72
2023-02-17T00:20:56.964Z,99029.00
2023-02-17T00:22:00.430Z,99024.59
2023-02-17T00:23:03.475Z,99027.94
2023-02-17T00:24:07.821Z,99032.09
2023-02-17T00:25:09.836Z,99027.81
2023-02-17T00:26:13.204Z,99027.72
2023-02-17T00:27:15.847Z,99023.34
2023-02-17T00:28:18.844Z,99025.84
2023-02-17T00:29:21.302Z,99021.50
2023-02-17T00:30:24.737Z,99012.94
2023-02-17T00:31:28.417Z,99022.34
2023-02-17T00:32:31.500Z,99015.47
2023-02-17T00:33:33.717Z,99019.72
2023-02-17T00:34:38.049Z,99014.59
2023-02-17T00:35:41.736Z,99019.59
2023-02-17T00:36:45.149Z,99014.38
2023-02-17T00:37:47.074Z,99012.56
2023-02-17T00:38:50.507Z,99013.28
2023-02-17T00:39:52.627Z,99011.44
2023-02-17T00:40:55.584Z,99007.84
2023-02-17T00:41:59.156Z,99006.81
2023-02-17T00:43:05.190Z,99004.06
2023-02-17T00:44:08.224Z,99003.06
2023-02-17T00:45:10.459Z,99004.59
2023-02-17T00:46:13.736Z,99007.00
2023-02-17T00:47:15.814Z,98999.16
2023-02-17T00:48:18.952Z,99007.56
2023-02-17T00:49:22.830Z,99000.59
2023-02-17T00:50:27.366Z,98992.81
2023-02-17T00:51:29.546Z,99000.38
2023-02-17T00:52:32.604Z,98991.78
2023-02-17T00:53:34.729Z,98997.69
2023-02-17T00:54:39.047Z,98989.03
2023-02-17T00:55:41.630Z,98996.63
2023-02-17T00:56:45.156Z,98998.19
2023-02-17T00:57:47.105Z,98992.09
2023-02-17T00:58:50.179Z,98986.88
2023-02-17T00:59:52.206Z,98988.44
2023-02-17T01:00:57.257Z,98984.16
2023-02-17T01:01:59.730Z,98983.28
2023-02-17T01:03:02.628Z,98994.34
2023-02-17T01:04:05.342Z,98988.31
2023-02-17T01:05:09.064Z,98985.69
2023-02-17T01:06:19.395Z,98985.56
2023-02-17T01:07:22.267Z,98988.88
2023-02-17T01:08:25.445Z,98981.97
2023-02-17T01:09:28.390Z,98996.41
2023-02-17T01:10:30.288Z,98982.66
2023-02-17T01:11:34.636Z,98980.00
2023-02-17T01:12:38.111Z,98984.19
2023-02-17T01:13:41.114Z,98976.50
2023-02-17T01:14:44.273Z,98984.97
2023-02-17T01:15:49.043Z,98981.50
2023-02-17T01:16:52.068Z,98970.31
2023-02-17T01:17:55.822Z,98979.53
2023-02-17T01:18:59.268Z,98980.25
2023-02-17T01:20:01.369Z,98980.22
2023-02-17T01:21:04.996Z,98975.78
2023-02-17T01:22:12.245Z,98968.00
2023-02-17T01:23:15.101Z,98963.66
2023-02-17T01:24:18.289Z,98956.69
2023-02-17T01:25:20.433Z,98956.38
2023-02-17T01:26:26.265Z,98962.06
2023-02-17T01:27:28.726Z,98963.47
2023-02-17T01:28:32.456Z,98957.16
2023-02-17T01:29:34.537Z,98954.28
2023-02-17T01:30:39.833Z,98959.94
2023-02-17T01:31:42.013Z,98956.19
2023-02-17T01:32:47.849Z,98959.28
2023-02-17T01:33:50.500Z,98950.53
2023-02-17T01:34:53.507Z,98953.75
2023-02-17T01:35:55.669Z,98954.41
2023-02-17T01:36:58.764Z,98944.94
2023-02-17T01:38:02.371Z,98947.38
2023-02-17T01:39:05.825Z,98951.56
2023-02-17T01:40:09.204Z,98951.50
2023-02-17T01:41:13.097Z,98952.31
2023-02-17T01:42:16.220Z,98947.09
2023-02-17T01:43:19.642Z,98956.38
2023-02-17T01:44:23.280Z,98949.47
2023-02-17T01:45:46.442Z,98956.16
2023-02-17T01:46:49.766Z,98954.38
2023-02-17T01:47:55.869Z,98961.16
2023-02-17T01:48:58.056Z,98964.53
2023-02-17T01:50:01.506Z,98962.72
2023-02-17T01:51:05.792Z,98957.66
2023-02-17T01:52:13.104Z,98951.63
2023-02-17T01:53:19.957Z,98949.16
2023-02-17T01:54:27.372Z,98949.22
2023-02-17T01:55:30.114Z,98940.75
2023-02-17T01:56:34.719Z,98947.75
2023-02-17T01:57:39.459Z,98949.47
2023-02-17T01:58:44.690Z,98956.38
2023-02-17T01:59:47.522Z,98953.06
2023-02-17T02:00:51.244Z,98949.81
2023-02-17T02:01:55.600Z,98953.41
2023-02-17T02:02:59.642Z,98951.84
2023-02-17T02:04:04.445Z,98956.31
2023-02-17T02:05:07.474Z,98952.25
2023-02-17T02:06:13.557Z,98949.81
2023-02-17T02:07:19.348Z,98953.41
2023-02-17T02:08:22.812Z,98954.47
2023-02-17T02:09:29.436Z,98957.97
2023-02-17T02:10:33.568Z,98957.94
2023-02-17T02:11:37.106Z,98957.94
2023-02-17T02:12:41.845Z,98947.66
2023-02-17T02:13:44.927Z,98951.06
2023-02-17T02:14:47.370Z,98948.56
2023-02-17T02:15:59.187Z,98959.59
2023-02-17T02:17:07.590Z,98953.63
2023-02-17T02:18:20.605Z,98950.09
2023-02-17T02:19:40.324Z,98946.66
2023-02-17T02:21:08.896Z,98946.66
2023-02-17T02:22:24.671Z,98941.41
2023-02-17T02:23:51.454Z,98948.09
2023-02-17T02:24:59.382Z,98944.69
2023-02-17T02:26:20.206Z,98943.72
2023-02-17T02:27:33.279Z,98943.63
2023-02-17T02:28:50.671Z,98946.84
2023-02-17T02:30:25.773Z,98938.13
2023-02-17T02:31:40.473Z,98943.13
2023-02-17T02:32:50.759Z,98934.41
2023-02-17T02:33:55.443Z,98934.31
2023-02-17T02:35:02.689Z,98941.84
2023-02-17T02:36:11.617Z,98939.19
2023-02-17T02:37:17.318Z,98936.50
2023-02-17T02:38:25.803Z,98925.34
2023-02-17T02:39:30.412Z,98925.34
2023-02-17T02:40:35.837Z,98928.69
2023-02-17T02:41:41.040Z,98920.19
2023-02-17T02:42:44.043Z,98923.66
2023-02-17T02:43:48.618Z,98921.16
2023-02-17T02:44:50.882Z,98920.38
2023-02-17T02:45:53.883Z,98928.19
2023-02-17T02:46:57.517Z,98921.50
2023-02-17T02:48:02.203Z,98925.97
2023-02-17T02:49:06.481Z,98930.47
2023-02-17T02:50:11.732Z,98920.44
2023-02-17T02:51:21.851Z,98929.16
2023-02-17T02:52:28.442Z,98927.63
2023-02-17T02:53:49.695Z,98930.34
2023-02-17T02:54:58.832Z,98927.13
2023-02-17T02:56:06.552Z,98932.50
2023-02-17T02:57:36.301Z,98931.03
2023-02-17T02:58:49.284Z,98926.13
2023-02-17T03:00:05.809Z,98930.53
2023-02-17T03:01:14.289Z,98930.84
2023-02-17T03:02:24.771Z,98931.78
2023-02-17T03:03:34.276Z,98925.88
2023-02-17T03:04:39.881Z,98937.97
2023-02-17T03:05:47.532Z,98937.28
2023-02-17T03:06:54.213Z,98928.03
2023-02-17T03:08:00.302Z,98922.97
2023-02-17T03:09:06.901Z,98923.13
2023-02-17T03:10:09.629Z,98914.72
2023-02-17T03:11:12.902Z,98924.25
2023-02-17T03:12:15.313Z,98919.94
2023-02-17T03:13:19.507Z,98917.31
2023-02-17T03:14:22.306Z,98919.84
2023-02-17T03:15:30.460Z,98904.47
2023-02-17T03:16:33.168Z,98911.19
2023-02-17T03:17:36.701Z,98900.03
2023-02-17T03:18:40.421Z,98899.16
2023-02-17T03:19:45.576Z,98902.56
2023-02-17T03:20:51.832Z,98901.69
2023-02-17T03:21:59.172Z,98905.06
2023-02-17T03:23:01.182Z,98894.75
2023-02-17T03:24:05.604Z,98902.38
2023-02-17T03:25:08.239Z,98901.53
2023-02-17T03:26:11.326Z,98897.31
2023-02-17T03:27:13.311Z,98900.72
2023-02-17T03:28:16.667Z,98899.81
2023-02-17T03:29:18.954Z,98901.38
2023-02-17T03:30:22.280Z,98899.63
2023-02-17T03:31:24.556Z,98900.47
2023-02-17T03:32:27.586Z,98897.91
2023-02-17T03:33:29.642Z,98885.88
2023-02-17T03:34:34.153Z,98882.34
2023-02-17T03:35:36.190Z,98891.69
2023-02-17T03:36:39.272Z,98888.22
2023-02-17T03:37:41.378Z,98889.81
2023-02-17T03:38:44.469Z,98898.31
2023-02-17T03:39:46.478Z,98891.53
2023-02-17T03:40:49.843Z,98894.00
2023-02-17T03:41:52.406Z,98892.28
2023-02-17T03:42:55.483Z,98897.41
2023-02-17T03:43:57.741Z,98894.84
2023-02-17T03:45:00.778Z,98894.00
2023-02-17T03:46:03.247Z,98890.56
2023-02-17T03:47:06.738Z,98899.88
2023-02-17T03:48:08.835Z,98904.94
2023-02-17T03:49:13.063Z,98905.00
2023-02-17T03:50:16.726Z,98905.00
2023-02-17T03:51:21.617Z,98901.63
2023-02-17T03:52:23.654Z,98903.31
2023-02-17T03:53:26.734Z,98906.75
2023-02-17T03:54:28.737Z,98896.50
2023-02-17T03:55:31.778Z,98901.53
2023-02-17T03:56:33.831Z,98896.19
2023-02-17T03:57:36.873Z,98898.34
2023-02-17T03:58:39.681Z,98900.38
2023-02-17T03:59:43.113Z,98900.63
2023-02-17T04:00:45.115Z,98903.47
2023-02-17T04:01:48.134Z,98906.31
2023-02-17T04:02:50.488Z,98901.59
2023-02-17T04:03:53.583Z,98900.31
2023-02-17T04:04:55.590Z,98901.59
2023-02-17T04:06:00.385Z,98900.38
2023-02-17T04:07:03.302Z,98901.84
2023-02-17T04:08:06.587Z,98890.53
2023-02-17T04:09:08.685Z,98898.06
2023-02-17T04:10:12.291Z,98889.31
2023-02-17T04:11:14.506Z,98890.78
2023-02-17T04:12:17.588Z,98884.63
2023-02-17T04:13:19.602Z,98890.50
2023-02-17T04:14:22.968Z,98886.09
2023-02-17T04:15:25.411Z,98885.88
2023-02-17T04:16:28.422Z,98884.06
2023-02-17T04:17:30.346Z,98884.69
2023-02-17T04:18:33.768Z,98877.75
2023-02-17T04:19:36.884Z,98883.66
2023-02-17T04:20:38.899Z,98872.38
2023-02-17T04:21:43.356Z,98878.31
2023-02-17T04:22:46.415Z,98872.25
2023-02-17T04:23:49.527Z,98874.75
2023-02-17T04:24:51.771Z,98874.69
2023-02-17T04:25:54.789Z,98880.53
2023-02-17T04:26:57.711Z,98879.50
2023-02-17T04:27:59.807Z,98873.38
2023-02-17T04:29:04.862Z,98871.69
2023-02-17T04:30:08.102Z,98870.78
2023-02-17T04:31:11.329Z,98877.56
2023-02-17T04:32:13.490Z,98880.06
2023-02-17T04:33:17.309Z,98875.75
2023-02-17T04:34:19.436Z,98872.25
2023-02-17T04:35:22.591Z,98872.13
2023-02-17T04:36:26.277Z,98868.50
2023-02-17T04:37:29.775Z,98875.31
2023-02-17T04:38:33.874Z,98866.56
2023-02-17T04:39:35.901Z,98863.81
2023-02-17T04:40:39.584Z,98871.34
2023-02-17T04:41:42.770Z,98872.78
2023-02-17T04:42:44.871Z,98870.00
2023-02-17T04:43:48.017Z,98872.38
2023-02-17T04:44:50.100Z,98876.34
2023-02-17T04:45:53.223Z,98865.81
2023-02-17T04:46:55.793Z,98866.38
2023-02-17T04:47:58.803Z,98861.88
2023-02-17T04:49:00.839Z,98866.75
2023-02-17T04:50:04.912Z,98861.44
2023-02-17T04:51:07.043Z,98862.97
2023-02-17T04:52:10.013Z,98860.25
2023-02-17T04:53:14.118Z,98857.50
2023-02-17T04:54:17.383Z,98859.94
2023-02-17T04:55:19.751Z,98855.47
2023-02-17T04:56:23.295Z,98859.56
2023-02-17T04:57:25.461Z,98858.59
2023-02-17T04:58:28.549Z,98854.97
2023-02-17T04:59:31.038Z,98854.78
2023-02-17T05:00:34.035Z,98864.13
2023-02-17T05:01:36.167Z,98862.31
2023-02-17T05:02:39.323Z,98856.13
2023-02-17T05:03:42.053Z,98857.84
2023-02-17T05:04:46.044Z,98856.00
2023-02-17T05:05:48.224Z,98851.66
2023-02-17T05:06:51.315Z,98855.84
2023-02-17T05:07:53.434Z,98850.63
2023-02-17T05:08:58.299Z,98852.28
2023-02-17T05:10:00.434Z,98847.91
2023-02-17T05:11:03.432Z,98846.06
2023-02-17T05:12:06.522Z,98845.13
2023-02-17T05:13:09.612Z,98845.06
2023-02-17T05:14:11.690Z,98845.84
2023-02-17T05:15:14.948Z,98836.19
2023-02-17T05:16:17.070Z,98840.28
2023-02-17T05:17:20.359Z,98836.63
2023-02-17T05:18:23.693Z,98833.91
2023-02-17T05:19:25.802Z,98832.81
2023-02-17T05:20:28.939Z,98831.81
2023-02-17T05:21:31.136Z,98827.34
2023-02-17T05:22:34.231Z,98832.41
2023-02-17T05:23:41.159Z,98828.00
2023-02-17T05:24:45.716Z,98826.19
2023-02-17T05:25:47.716Z,98832.19
2023-02-17T05:26:50.802Z,98827.75
2023-02-17T05:27:53.077Z,98825.03
2023-02-17T05:28:56.096Z,98829.19
2023-02-17T05:29:58.219Z,98834.28
2023-02-17T05:31:01.860Z,98830.78
2023-02-17T05:32:03.957Z,98823.06
2023-02-17T05:33:07.006Z,98821.22
2023-02-17T05:34:27.671Z,98825.53
2023-02-17T05:35:30.822Z,98822.97
2023-02-17T05:36:32.832Z,98836.63
2023-02-17T05:37:35.925Z,98824.56
2023-02-17T05:38:40.187Z,98829.53
2023-02-17T05:39:43.216Z,98820.03
2023-02-17T05:40:46.732Z,98820.00
2023-02-17T05:41:49.738Z,98813.91
2023-02-17T05:42:51.827Z,98817.31
2023-02-17T05:43:55.472Z,98819.81
2023-02-17T05:44:57.561Z,98820.63
2023-02-17T05:46:03.467Z,98817.13
2023-02-17T05:47:05.657Z,98824.88
2023-02-17T05:48:08.634Z,98820.56
2023-02-17T05:49:10.737Z,98820.56
2023-02-17T05:50:13.809Z,98823.16
2023-02-17T05:51:17.300Z,98818.06
2023-02-17T05:52:20.621Z,98826.63
2023-02-17T05:53:22.832Z,98827.56
2023-02-17T05:54:25.894Z,98824.22
2023-02-17T05:55:28.981Z,98828.72
2023-02-17T05:56:33.150Z,98824.56
2023-02-17T05:57:36.159Z,98822.88
2023-02-17T05:58:38.166Z,98822.97
2023-02-17T05:59:41.432Z,98811.91
2023-02-17T06:00:43.470Z,98811.06
2023-02-17T06:01:46.467Z,98815.47
2023-02-17T06:02:48.586Z,98823.38
2023-02-17T06:03:51.530Z,98828.84
2023-02-17T06:04:53.714Z,98824.00
2023-02-17T06:05:56.764Z,98829.34
2023-02-17T06:06:58.765Z,98820.81
2023-02-17T06:08:01.837Z,98823.59
2023-02-17T06:09:04.044Z,98823.63
2023-02-17T06:10:08.726Z,98819.41
2023-02-17T06:11:10.769Z,98821.16
2023-02-17T06:12:15.411Z,98819.50
2023-02-17T06:13:17.485Z,98817.00
2023-02-17T06:14:20.450Z,98810.22
2023-02-17T06:15:23.172Z,98812.91
2023-02-17T06:16:26.321Z,98806.22
2023-02-17T06:17:28.358Z,98806.22
2023-02-17T06:18:31.545Z,98802.69
2023-02-17T06:19:34.458Z,98808.47
2023-02-17T06:20:36.491Z,98805.66
2023-02-17T06:21:39.552Z,98802.84
2023-02-17T06:22:42.873Z,98806.03
2023-02-17T06:23:44.941Z,98800.63
2023-02-17T06:24:48.194Z,98798.63
2023-02-17T06:25:50.678Z,98805.31
2023-02-17T06:26:53.681Z,98801.63
2023-02-17T06:27:57.672Z,98803.91
2023-02-17T06:29:00.712Z,98806.31
2023-02-17T06:30:03.850Z,98800.06
2023-02-17T06:31:07.445Z,98798.09
2023-02-17T06:32:09.618Z,98810.75
2023-02-17T06:33:12.727Z,98801.09
2023-02-17T06:34:14.822Z,98805.16
2023-02-17T06:35:18.107Z,98804.06
2023-02-17T06:36:20.363Z,98803.09
2023-02-17T06:37:24.086Z,98797.75
2023-02-17T06:38:26.084Z,98794.19
2023-02-17T06:39:28.997Z,98791.41
2023-02-17T06:40:31.119Z,98791.25
2023-02-17T06:41:34.148Z,98796.25
2023-02-17T06:42:36.282Z,98796.91
2023-02-17T06:43:40.655Z,98788.16
2023-02-17T06:44:42.664Z,98791.31
2023-02-17T06:45:45.726Z,98793.72
2023-02-17T06:46:49.021Z,98802.13
2023-02-17T06:47:50.932Z,98803.63
2023-02-17T06:48:53.845Z,98800.97
2023-02-17T06:49:57.330Z,98803.38
2023-02-17T06:50:59.700Z,98806.59
2023-02-17T06:52:03.076Z,98803.88
2023-02-17T06:53:05.532Z,98801.94
2023-02-17T06:54:08.278Z,98799.19
2023-02-17T06:55:11.495Z,98799.84
2023-02-17T06:56:14.328Z,98804.81
2023-02-17T06:57:16.592Z,98800.41
2023-02-17T06:58:19.771Z,98801.97
2023-02-17T06:59:23.043Z,98798.41
2023-02-17T07:00:27.013Z,98806.88
2023-02-17T07:01:28.750Z,98812.81
2023-02-17T07:02:31.718Z,98798.88
2023-02-17T07:03:33.600Z,98799.63
2023-02-17T07:04:36.346Z,98797.78
2023-02-17T07:05:40.206Z,98801.84
2023-02-17T07:06:42.659Z,98796.47
2023-02-17T07:07:45.498Z,98791.97
2023-02-17T07:08:47.433Z,98788.38
2023-02-17T07:09:50.169Z,98788.19
2023-02-17T07:10:52.242Z,98782.84
2023-02-17T07:11:55.055Z,98787.00
2023-02-17T07:12:56.916Z,98778.25
2023-02-17T07:14:00.191Z,98781.47
2023-02-17T07:15:03.542Z,98786.56
2023-02-17T07:16:07.094Z,98777.78
2023-02-17T07:17:09.034Z,98776.69
2023-02-17T07:18:11.988Z,98775.59
2023-02-17T07:19:13.829Z,98773.56
2023-02-17T07:20:16.670Z,98775.09
2023-02-17T07:21:18.685Z,98770.59
2023-02-17T07:22:21.597Z,98768.66
2023-02-17T07:23:24.418Z,98774.56
2023-02-17T07:24:45.713Z,98787.31
2023-02-17T07:25:48.557Z,98780.28
2023-02-17T07:26:50.330Z,98781.78
2023-02-17T07:27:53.295Z,98779.91
2023-02-17T07:28:55.175Z,98784.09
2023-02-17T07:29:57.955Z,98794.22
2023-02-17T07:31:07.573Z,98796.75
2023-02-17T07:32:09.432Z,98786.19
2023-02-17T07:33:12.420Z,98791.19
2023-02-17T07:34:14.592Z,98798.84
2023-02-17T07:35:17.874Z,98793.50
2023-02-17T07:36:19.695Z,98792.47
2023-02-17T07:37:22.479Z,98795.78
2023-02-17T07:38:24.274Z,98790.53
2023-02-17T07:39:27.432Z,98793.84
2023-02-17T07:40:29.513Z,98792.91
2023-02-17T07:41:33.586Z,98792.84
2023-02-17T07:42:44.125Z,98782.47
2023-02-17T07:43:47.500Z,98790.03
2023-02-17T07:44:52.401Z,98782.91
2023-02-17T07:45:54.630Z,98779.28
2023-02-17T07:46:59.205Z,98781.59
2023-02-17T07:48:00.966Z,98772.81
2023-02-17T07:49:03.895Z,98775.03
2023-02-17T07:50:07.251Z,98776.50
2023-02-17T07:51:11.870Z,98773.63
2023-02-17T07:52:13.655Z,98768.97
2023-02-17T07:53:16.428Z,98767.81
2023-02-17T07:54:19.069Z,98777.84
2023-02-17T07:55:22.222Z,98771.59
2023-02-17T07:56:24.672Z,98768.81
2023-02-17T07:57:27.391Z,98760.00
2023-02-17T07:58:29.211Z,98759.81
2023-02-17T07:59:32.119Z,98758.81
2023-02-17T08:00:34.079Z,98774.28
2023-02-17T08:01:36.850Z,98772.41
2023-02-17T08:02:40.097Z,98773.97
2023-02-17T08:03:42.912Z,98774.72
2023-02-17T08:04:45.227Z,98775.44
2023-02-17T08:05:51.132Z,98768.41
2023-02-17T08:06:53.946Z,98761.34
2023-02-17T08:08:10.641Z,98761.16
2023-02-17T08:09:30.979Z,98754.81
2023-02-17T08:10:51.182Z,98754.44
2023-02-17T08:12:11.642Z,98753.91
2023-02-17T08:13:20.208Z,98752.47
2023-02-17T08:14:24.157Z,98746.78
2023-02-17T08:15:26.048Z,98749.81
2023-02-17T08:16:29.326Z,98746.78
2023-02-17T08:17:31.165Z,98740.66
2023-02-17T08:18:36.793Z,98745.66
2023-02-17T08:19:48.012Z,98745.66
2023-02-17T08:20:52.309Z,98748.25
2023-02-17T08:21:55.275Z,98743.97
2023-02-17T08:22:58.058Z,98743.06
2023-02-17T08:24:00.862Z,98742.13
2023-02-17T08:25:05.928Z,98745.66
2023-02-17T08:26:08.904Z,98743.88
2023-02-17T08:27:10.922Z,98745.53
2023-02-17T08:28:14.540Z,98741.06
2023-02-17T08:29:18.825Z,98742.72
2023-02-17T08:30:21.861Z,98742.63
2023-02-17T08:31:26.284Z,98740.88
2023-02-17T08:32:29.253Z,98742.63
2023-02-17T08:33:32.004Z,98745.44
2023-02-17T08:34:35.383Z,98745.44
2023-02-17T08:35:38.177Z,98741.28
2023-02-17T08:36:40.254Z,98745.66
2023-02-17T08:37:43.222Z,98748.31
2023-02-17T08:38:48.495Z,98751.88
2023-02-17T08:39:51.293Z,98748.56
2023-02-17T08:40:54.079Z,98751.22
2023-02-17T08:41:55.980Z,98750.53
2023-02-17T08:42:58.849Z,98749.81
2023-02-17T08:44:02.738Z,98754.25
2023-02-17T08:45:06.531Z,98750.00
2023-02-17T08:46:09.097Z,98750.09
2023-02-17T08:47:12.734Z,98760.56
2023-02-17T08:48:15.676Z,98752.06
2023-02-17T08:49:18.775Z,98754.84
2023-02-17T08:50:23.934Z,98750.72
2023-02-17T08:51:26.260Z,98737.84
2023-02-17T08:52:29.114Z,98749.16
2023-02-17T08:53:32.376Z,98741.47
2023-02-17T08:54:34.206Z,98738.06
2023-02-17T08:55:48.664Z,98744.19
2023-02-17T08:56:52.067Z,98743.44
2023-02-17T08:57:54.983Z,98744.38
2023-02-17T08:58:57.029Z,98731.41
2023-02-17T09:00:00.163Z,98743.44
2023-02-17T09:01:02.155Z,98742.53
2023-02-17T09:02:05.151Z,98745.00
2023-02-17T09:03:07.581Z,98742.28
2023-02-17T09:04:12.460Z,98737.13
2023-02-17T09:05:15.853Z,98739.00
2023-02-17T09:06:21.319Z,98742.53
2023-02-17T09:07:24.172Z,98734.81
2023-02-17T09:08:26.986Z,98737.53
2023-02-17T09:09:30.077Z,98736.69
2023-02-17T09:10:31.970Z,98737.53
2023-02-17T09:11:34.746Z,98734.94
2023-02-17T09:12:37.590Z,98732.44
2023-02-17T09:13:39.383Z,98731.50
2023-02-17T09:14:42.185Z,98724.56
2023-02-17T09:15:44.117Z,98731.50
2023-02-17T09:16:46.873Z,98727.16
2023-02-17T09:17:49.734Z,98725.50
2023-02-17T09:18:51.913Z,98730.69
2023-02-17T09:19:54.982Z,98732.53
2023-02-17T09:20:58.386Z,98731.69
2023-02-17T09:22:02.670Z,98729.22
2023-02-17T09:23:04.442Z,98724.97
2023-02-17T09:24:07.660Z,98720.63
2023-02-17T09:25:11.358Z,98725.81
2023-02-17T09:26:16.408Z,98722.28
2023-02-17T09:27:18.262Z,98725.69
2023-02-17T09:28:21.293Z,98717.84
2023-02-17T09:29:24.083Z,98721.03
2023-02-17T09:30:26.123Z,98720.84
2023-02-17T09:31:30.772Z,98718.00
2023-02-17T09:32:33.732Z,98716.88
2023-02-17T09:33:35.517Z,98715.88
2023-02-17T09:34:38.871Z,98715.63
2023-02-17T09:35:40.802Z,98706.84
2023-02-17T09:36:44.106Z,98715.22
2023-02-17T09:37:48.342Z,98707.94
2023-02-17T09:38:51.149Z,98722.38
2023-02-17T09:39:54.113Z,98707.44
2023-02-17T09:41:00.624Z,98713.25
2023-02-17T09:42:03.531Z,98722.59
2023-02-17T09:43:05.421Z,98722.38
2023-02-17T09:44:17.768Z,98717.09
2023-02-17T09:45:22.477Z,98708.25
2023-02-17T09:46:28.833Z,98706.28
2023-02-17T09:47:35.407Z,98706.78
2023-02-17T09:48:38.227Z,98704.69
2023-02-17T09:49:42.775Z,98698.25
2023-02-17T09:50:49.898Z,98707.38
2023-02-17T09:51:55.416Z,98694.81
2023-02-17T09:53:03.740Z,98714.41
2023-02-17T09:54:10.789Z,98709.72
2023-02-17T09:55:15.855Z,98703.63
2023-02-17T09:56:23.413Z,98701.72
2023-02-17T09:57:29.313Z,98689.56
2023-02-17T09:58:35.648Z,98700.91
2023-02-17T09:59:39.889Z,98689.44
2023-02-17T10:00:45.753Z,98692.78
2023-02-17T10:01:49.817Z,98698.91
2023-02-17T10:02:57.789Z,98700.47
2023-02-17T10:04:05.997Z,98697.75
2023-02-17T10:05:12.379Z,98702.03
2023-02-17T10:06:16.280Z,98695.88
2023-02-17T10:07:22.854Z,98696.59
2023-02-17T10:08:28.817Z,98706.03
2023-02-17T10:09:34.999Z,98707.47
2023-02-17T10:10:40.889Z,98697.84
2023-02-17T10:11:45.831Z,98708.72
2023-02-17T10:12:51.892Z,98692.19
2023-02-17T10:13:58.490Z,98705.28
2023-02-17T10:15:06.909Z,98705.63
2023-02-17T10:16:21.680Z,98704.88
2023-02-17T10:17:30.101Z,98717.50
2023-02-17T10:18:36.039Z,98706.72
2023-02-17T10:19:43.625Z,98705.28
2023-02-17T10:20:50.644Z,98713.38
2023-02-17T10:21:58.922Z,98711.81
2023-02-17T10:23:05.288Z,98706.84
2023-02-17T10:24:09.682Z,98708.63
2023-02-17T10:25:15.423Z,98707.06
2023-02-17T10:26:25.822Z,98702.81
2023-02-17T10:27:33.591Z,98699.38
2023-02-17T10:28:45.561Z,98704.69
2023-02-17T10:29:52.594Z,98692.75
2023-02-17T10:31:01.452Z,98691.91
2023-02-17T10:32:16.633Z,98687.53
2023-02-17T10:33:25.147Z,98691.53
2023-02-17T10:34:35.300Z,98690.47
2023-02-17T10:35:48.632Z,98689.75
2023-02-17T10:36:58.414Z,98689.00
2023-02-17T10:38:05.081Z,98688.41
2023-02-17T10:39:14.821Z,98679.06
2023-02-17T10:40:21.378Z,98680.00
2023-02-17T10:41:27.118Z,98679.06
2023-02-17T10:42:32.379Z,98677.41
2023-02-17T10:43:34.766Z,98673.03
2023-02-17T10:44:39.146Z,98675.63
2023-02-17T10:45:42.981Z,98671.28
2023-02-17T10:46:48.471Z,98666.19
2023-02-17T10:47:59.310Z,98665.38
2023-02-17T10:49:01.561Z,98676.69
2023-02-17T10:50:04.790Z,98675.00
2023-02-17T10:51:08.356Z,98659.56
2023-02-17T10:52:13.293Z,98662.28
2023-02-17T10:53:19.092Z,98657.19
2023-02-17T10:54:30.078Z,98653.84
2023-02-17T10:55:36.584Z,98648.66
2023-02-17T10:56:44.141Z,98660.69
2023-02-17T10:57:48.511Z,98651.16
2023-02-17T10:58:55.385Z,98640.69
2023-02-17T10:59:58.410Z,98643.16
2023-02-17T11:01:02.553Z,98644.81
2023-02-17T11:02:21.528Z,98642.00
2023-02-17T11:03:27.440Z,98628.09
2023-02-17T11:04:42.201Z,98630.25
2023-02-17T11:05:45.302Z,98627.44
2023-02-17T11:06:49.454Z,98618.28
2023-02-17T11:07:57.055Z,98617.63
2023-02-17T11:09:00.381Z,98614.56
2023-02-17T11:10:21.408Z,98612.97
2023-02-17T11:11:25.620Z,98610.03
2023-02-17T11:12:30.733Z,98613.97
2023-02-17T11:13:37.505Z,98605.84
2023-02-17T11:14:45.502Z,98601.25
2023-02-17T11:15:48.958Z,98592.25
2023-02-17T11:16:59.129Z,98592.06
2023-02-17T11:18:03.161Z,98598.81
2023-02-17T11:19:05.884Z,98593.50
2023-02-17T11:20:28.702Z,98592.41
2023-02-17T11:21:33.894Z,98588.28
2023-02-17T11:22:40.980Z,98586.41
2023-02-17T11:23:51.061Z,98586.88
2023-02-17T11:24:59.515Z,98583.47
2023-02-17T11:26:10.682Z,98581.81
2023-02-17T11:27:13.632Z,98580.97
2023-02-17T11:28:24.939Z,98581.44
2023-02-17T11:29:28.234Z,98579.88
2023-02-17T11:30:32.265Z,98579.28
2023-02-17T11:31:35.602Z,98581.16
2023-02-17T11:32:38.393Z,98582.94
2023-02-17T11:33:41.470Z,98577.97
2023-02-17T11:34:44.538Z,98565.09
2023-02-17T11:35:51.555Z,98575.50
2023-02-17T11:37:01.607Z,98570.28
2023-02-17T11:38:12.921Z,98564.38
2023-02-17T11:39:20.381Z,98567.81
2023-02-17T11:40:27.309Z,98566.88
2023-02-17T11:41:40.940Z,98548.81
2023-02-17T11:42:43.729Z,98561.66
2023-02-17T11:43:55.236Z,98545.03
2023-02-17T11:44:58.950Z,98552.84
2023-02-17T11:46:21.746Z,98561.22
2023-02-17T11:47:32.009Z,98556.63
2023-02-17T11:48:58.196Z,98549.44
2023-02-17T11:50:10.300Z,98538.91
2023-02-17T11:51:18.783Z,98550.97
2023-02-17T11:52:31.253Z,98535.50
2023-02-17T11:53:46.597Z,98536.31
2023-02-17T11:55:02.647Z,98548.59
2023-02-17T11:56:13.981Z,98532.06
2023-02-17T11:57:26.672Z,98553.91
2023-02-17T11:58:39.372Z,98540.09
2023-02-17T11:59:53.290Z,98541.25
2023-02-17T12:01:01.834Z,98553.41
2023-02-17T12:02:19.308Z,98553.41
2023-02-17T12:03:36.819Z,98550.25
2023-02-17T12:04:43.557Z,98555.53
2023-02-17T12:05:54.474Z,98563.31
2023-02-17T12:07:35.784Z,98556.34
2023-02-17T12:08:47.771Z,98553.06
2023-02-17T12:09:56.374Z,98549.50
2023-02-17T12:11:06.359Z,98546.22
2023-02-17T12:12:15.209Z,98541.97
2023-02-17T12:13:28.101Z,98546.41
2023-02-17T12:14:47.155Z,98538.75
2023-02-17T12:16:01.961Z,98543.22
2023-02-17T12:17:07.179Z,98530.47
2023-02-17T12:18:23.780Z,98546.06
2023-02-17T12:19:37.185Z,98545.22
2023-02-17T12:20:47.365Z,98540.13
2023-02-17T12:21:55.778Z,98546.19
2023-02-17T12:23:07.920Z,98533.91
2023-02-17T12:24:49.381Z,98521.03
2023-02-17T12:25:55.419Z,98528.91
2023-02-17T12:27:06.471Z,98536.50
2023-02-17T12:28:37.218Z,98525.28
2023-02-17T12:29:56.519Z,98531.28
2023-02-17T12:31:02.914Z,98531.28
2023-02-17T12:32:19.836Z,98536.28
2023-02-17T12:33:33.013Z,98524.13
2023-02-17T12:34:37.993Z,98529.19
2023-02-17T12:35:45.965Z,98528.13
2023-02-17T12:36:49.286Z,98522.81
2023-02-17T12:37:55.244Z,98522.69
2023-02-17T12:38:59.997Z,98518.22
2023-02-17T12:40:06.477Z,98518.13
2023-02-17T12:41:12.037Z,98513.63
2023-02-17T12:42:17.641Z,98521.28
2023-02-17T12:43:26.528Z,98516.00
2023-02-17T12:44:33.071Z,98517.66
2023-02-17T12:45:38.582Z,98507.25